• Join FlightAware (Why Join?)
  • Login
  • US Flag 
08:06PM EDT


 

Airport Tracker/Info


-or-


 

Live Flight TrackerFlight Track Log ✈ FLG3729 ✈ 15-May-2013 ✈ KALB - KDTW

Flight Track Log - Related Links

Times and Time Zones

All times are in EDT time to prevent confusion due to time zone crossing. See the FLG3729 flight status page for this flight to view local times or setup timezone preferences in your user account.

Time Position Orientation Groundspeed Altitude Reporting Facility
EDT Latitude Longitude Course Direction KTS MPH feet Rate Location/Type
06:05AM 42.7694 -73.8089 283° West 170 196 1,200  Level Boston Center
06:07AM 42.8831 -73.8881 333° Northwest 247 284 6,600 2,760 Climbing Boston Center
06:08AM 42.8233 -74.2628 281° West  Level FlightAware Approximate
06:08AM 42.9425 -73.9575 319° Northwest 253 291 9,900  Level Boston Center
06:09AM 42.8414 -74.3815 283° West  Level FlightAware Approximate
06:09AM 42.9919 -74.0156 319° Northwest 253 291 12,100  Level Boston Center
06:10AM 42.8611 -74.4997 283° West  Level FlightAware Approximate
06:10AM 43.0278 -74.1328 293° West 281 323 14,000  Level Boston Center
06:11AM 43.0364 -74.2439 276° West 301 346 16,000 1,920 Climbing Boston Center
06:12AM 43.0467 -74.3833 276° West 338 389 17,900 1,620 Climbing Boston Center
06:13AM 43.0528 -74.5031 274° West 347 399 19,300 1,500 Climbing Boston Center
06:14AM 43.0628 -74.6339 276° West 352 405 20,900 1,500 Climbing Boston Center
06:15AM 43.0728 -74.7594 276° West 347 399 22,300 1,380 Climbing Boston Center
06:16AM 43.0828 -74.8906 276° West 347 399 23,700 1,200 Climbing Boston Center
06:17AM 43.0903 -75.0217 275° West 347 399 24,800 1,020 Climbing Boston Center
06:18AM 43.0975 -75.1528 274° West 347 399 25,800 960 Climbing Boston Center
06:19AM 43.1069 -75.2842 276° West 347 399 26,800 720 Climbing Boston Center
06:21AM 43.1239 -75.5506 275° West 344 396 28,000 360 Climbing Cleveland Center
06:22AM 43.1300 -75.6894 273° West 356 410 28,000  Level Cleveland Center
06:23AM 43.1397 -75.8253 276° West 363 418 28,000  Level Cleveland Center
06:24AM 43.1475 -75.9642 274° West 363 418 28,000  Level Cleveland Center
06:25AM 43.1553 -76.1061 274° West 369 425 28,100 600 Climbing Cleveland Center
06:26AM 43.1542 -76.2400 269° West 369 425 29,200 900 Climbing Cleveland Center
06:27AM 43.1467 -76.3800 266° West 369 425 30,000 360 Climbing Cleveland Center
06:28AM 43.1350 -76.5172 263° West 369 425 30,000  Level Cleveland Center
06:29AM 43.1231 -76.6603 264° West 369 425 30,000  Level Cleveland Center
06:30AM 43.1075 -76.8150 262° West 369 425 30,000  Level Cleveland Center
06:31AM 43.0950 -76.9467 263° West 383 441 30,000  Level Cleveland Center
06:32AM 43.0828 -77.0922 263° West 388 447 30,000  Level Cleveland Center
06:33AM 43.0683 -77.2353 262° West 388 447 30,000  Level Cleveland Center
06:34AM 43.0578 -77.3808 264° West 388 447 30,000  Level Cleveland Center
06:35AM 43.0431 -77.5264 262° West 388 447 30,000  Level Cleveland Center
06:36AM 43.0300 -77.6664 263° West 388 447 30,000  Level Cleveland Center
06:37AM 43.0167 -77.8003 262° West 382 440 30,000  Level Cleveland Center
06:38AM 43.0031 -77.9344 262° West 366 421 30,000  Level Cleveland Center
06:39AM 42.9894 -78.0683 262° West 361 415 30,000  Level Cleveland Center
06:40AM 42.9756 -78.2025 262° West 361 415 30,000  Level Cleveland Center
06:41AM 42.9614 -78.3336 262° West 356 410 30,000  Level Cleveland Center
06:42AM 42.9494 -78.4672 263° West 356 410 30,000  Level Cleveland Center
06:43AM 42.9350 -78.5981 261° West 356 410 30,000  Level Cleveland Center
06:44AM 42.9186 -78.7347 261° West 356 410 30,000  Level Cleveland Center
06:45AM 42.8997 -78.8714 259° West 361 415 30,000  Level Cleveland Center
06:46AM 42.8769 -79.0136 258° West 374 430 30,000  Level Cleveland Center
06:47AM 42.8578 -79.1586 260° West 384 442 30,000  Level Cleveland Center
06:48AM 42.8386 -79.3064 260° West 392 451 30,000  Level Cleveland Center
06:49AM 42.8153 -79.4483 257° West 392 451 30,000  Level Cleveland Center
06:50AM 42.7956 -79.5872 259° West 387 445 30,000  Level Cleveland Center
06:51AM 42.7739 -79.7206 258° West 381 438 30,000  Level Cleveland Center
06:52AM 42.7539 -79.8594 259° West 376 433 30,000  Level Cleveland Center
06:53AM 42.7422 -80.0008 264° West 371 427 30,000  Level Cleveland Center
06:54AM 42.7386 -80.1367 268° West 366 421 30,000  Level Cleveland Center
06:55AM 42.7328 -80.2750 267° West 373 429 30,000  Level Cleveland Center
06:56AM 42.7289 -80.4136 268° West 364 419 30,000  Level Cleveland Center
06:57AM 42.7228 -80.5550 267° West 375 432 30,000 -360 Level Cleveland Center
06:58AM 42.7144 -80.6933 265° West 375 432 29,300 -900 Descending Cleveland Center
06:59AM 42.7100 -80.8458 268° West 375 432 28,200 -1,080 Descending Cleveland Center
07:00AM 42.6950 -80.9814 261° West 367 422 27,200 -1,020 Descending Cleveland Center
07:01AM 42.6800 -81.1169 261° West 367 422 26,200 -1,020 Descending Cleveland Center
07:02AM 42.6667 -81.2525 262° West 367 422 25,200 -1,020 Descending Cleveland Center
07:03AM 42.6492 -81.3933 260° West 372 428 24,200 -1,020 Descending Cleveland Center
07:04AM 42.6333 -81.5342 261° West 377 434 23,200 -1,320 Descending Cleveland Center
07:05AM 42.6175 -81.6722 261° West 377 434 21,600 -1,560 Descending Cleveland Center
07:06AM 42.5997 -81.7989 259° West 364 419 20,100 -1,560 Descending Cleveland Center
07:07AM 42.5836 -81.9283 260° West 359 413 18,500 -1,740 Descending Cleveland Center
07:08AM 42.5697 -82.0519 261° West 353 406 16,700 -1,800 Descending Cleveland Center
07:09AM 42.5556 -82.1672 261° West 335 386 15,000 -1,740 Descending Cleveland Center
07:10AM 42.5394 -82.2825 259° West 323 372 13,300 -1,800 Descending Cleveland Center
07:10AM 42.5367 -82.3247 265° West 310 357 12,700 -1,500 Descending Cleveland Center
07:11AM 42.5317 -82.3808 263° West 310 357 12,100 -540 Descending Cleveland Center
07:12AM 42.5175 -82.4847 260° West 309 356 12,000 -120 Descending Cleveland Center
07:12AM 42.5128 -82.5128 257° West 312 359 12,000  Level Cleveland Center
07:13AM 42.4797 -82.6214 248° West 312 359 12,000 -300 Level Cleveland Center
07:14AM 42.4531 -82.7022 246° West 314 361 11,500 -720 Descending Cleveland Center
07:14AM 42.4422 -82.7272 240° Southwest 318 366 11,300 -1,080 Descending Cleveland Center
07:15AM 42.4200 -82.7967 247° West 295 339 10,500 -1,020 Descending Cleveland Center
07:15AM 42.4069 -82.8244 238° Southwest 311 358 10,300 -900 Descending Cleveland Center
07:16AM 42.3892 -82.8828 248° West 248 285 9,600 -1,020 Descending Cleveland Center
07:16AM 42.3783 -82.9133 244° Southwest 287 330 9,300 -1,140 Descending Cleveland Center
07:17AM 42.3811 -82.9808 273° West 252 290 8,500 -1,020 Descending Cleveland Center
07:17AM 42.3764 -83.0031 254° West 260 299 8,300 -1,140 Descending Cleveland Center
07:18AM 42.3792 -83.0708 273° West 244 281 7,400 -1,200 Descending Cleveland Center
07:18AM 42.3764 -83.0961 262° West 254 292 7,100 -1,920 Descending Cleveland Center
07:19AM 42.3792 -83.1636 273° West 237 273 5,500 -1,920 Descending Cleveland Center
07:19AM 42.3767 -83.1858 261° West 249 287 5,200 -1,440 Descending Cleveland Center
07:20AM 42.3567 -83.2300 239° Southwest 208 239 4,200 -1,320 Descending Cleveland Center
07:20AM 42.3397 -83.2461 215° Southwest 214 246 3,900 -840 Descending Cleveland Center